sensor_id;sensor_type;location;lat;lon;timestamp;temperature;humidity
70074;DHT22;57445;51.058;3.698;2023-02-28T00:01:53;3.80;89.70
70074;DHT22;57445;51.058;3.698;2023-02-28T00:04:25;3.80;90.00
70074;DHT22;57445;51.058;3.698;2023-02-28T00:06:54;3.80;90.10
70074;DHT22;57445;51.058;3.698;2023-02-28T00:09:26;3.80;90.10
70074;DHT22;57445;51.058;3.698;2023-02-28T00:12:00;3.70;90.10
70074;DHT22;57445;51.058;3.698;2023-02-28T00:14:35;3.70;90.10
70074;DHT22;57445;51.058;3.698;2023-02-28T00:17:07;3.70;90.10
70074;DHT22;57445;51.058;3.698;2023-02-28T00:19:40;3.70;90.30
70074;DHT22;57445;51.058;3.698;2023-02-28T00:22:13;3.70;90.50
70074;DHT22;57445;51.058;3.698;2023-02-28T00:24:46;3.60;90.60
70074;DHT22;57445;51.058;3.698;2023-02-28T00:27:18;3.60;90.70
70074;DHT22;57445;51.058;3.698;2023-02-28T00:29:51;3.60;90.80
70074;DHT22;57445;51.058;3.698;2023-02-28T00:32:20;3.60;90.90
70074;DHT22;57445;51.058;3.698;2023-02-28T00:34:53;3.60;91.00
70074;DHT22;57445;51.058;3.698;2023-02-28T00:37:20;3.60;91.10
70074;DHT22;57445;51.058;3.698;2023-02-28T00:39:48;3.90;91.50
70074;DHT22;57445;51.058;3.698;2023-02-28T00:42:20;3.60;91.30
70074;DHT22;57445;51.058;3.698;2023-02-28T00:44:53;3.60;91.20
70074;DHT22;57445;51.058;3.698;2023-02-28T00:47:21;3.70;91.10
70074;DHT22;57445;51.058;3.698;2023-02-28T00:49:48;3.70;91.00
70074;DHT22;57445;51.058;3.698;2023-02-28T00:52:16;3.70;91.10
70074;DHT22;57445;51.058;3.698;2023-02-28T00:54:48;3.60;91.20
70074;DHT22;57445;51.058;3.698;2023-02-28T00:57:15;3.60;91.60
70074;DHT22;57445;51.058;3.698;2023-02-28T00:59:48;3.60;91.50
70074;DHT22;57445;51.058;3.698;2023-02-28T01:02:21;3.60;91.60
70074;DHT22;57445;51.058;3.698;2023-02-28T01:04:49;3.50;91.60
70074;DHT22;57445;51.058;3.698;2023-02-28T01:07:21;3.50;91.70
70074;DHT22;57445;51.058;3.698;2023-02-28T01:09:53;3.60;91.80
70074;DHT22;57445;51.058;3.698;2023-02-28T01:12:25;3.60;91.70
70074;DHT22;57445;51.058;3.698;2023-02-28T01:14:57;3.60;91.70
70074;DHT22;57445;51.058;3.698;2023-02-28T01:17:26;3.60;91.80
70074;DHT22;57445;51.058;3.698;2023-02-28T01:19:54;3.60;92.10
70074;DHT22;57445;51.058;3.698;2023-02-28T01:22:22;3.50;92.10
70074;DHT22;57445;51.058;3.698;2023-02-28T01:24:54;3.40;92.40
70074;DHT22;57445;51.058;3.698;2023-02-28T01:27:21;3.40;92.60
70074;DHT22;57445;51.058;3.698;2023-02-28T01:29:50;3.40;92.80
70074;DHT22;57445;51.058;3.698;2023-02-28T01:32:17;3.40;92.90
70074;DHT22;57445;51.058;3.698;2023-02-28T01:34:51;3.40;93.10
70074;DHT22;57445;51.058;3.698;2023-02-28T01:37:18;3.40;93.10
70074;DHT22;57445;51.058;3.698;2023-02-28T01:39:50;3.50;93.10
70074;DHT22;57445;51.058;3.698;2023-02-28T01:42:17;3.40;93.20
70074;DHT22;57445;51.058;3.698;2023-02-28T01:45:00;3.50;93.20
70074;DHT22;57445;51.058;3.698;2023-02-28T01:47:29;3.40;93.20
70074;DHT22;57445;51.058;3.698;2023-02-28T01:49:59;3.40;93.50
70074;DHT22;57445;51.058;3.698;2023-02-28T01:52:28;3.40;93.60
70074;DHT22;57445;51.058;3.698;2023-02-28T01:54:56;3.80;93.60
70074;DHT22;57445;51.058;3.698;2023-02-28T01:57:29;3.50;93.60
70074;DHT22;57445;51.058;3.698;2023-02-28T02:00:05;3.80;93.70
70074;DHT22;57445;51.058;3.698;2023-02-28T02:02:38;3.40;93.90
70074;DHT22;57445;51.058;3.698;2023-02-28T02:05:12;3.40;94.00
70074;DHT22;57445;51.058;3.698;2023-02-28T02:07:41;3.40;94.10
70074;DHT22;57445;51.058;3.698;2023-02-28T02:10:11;3.30;94.30
70074;DHT22;57445;51.058;3.698;2023-02-28T02:12:49;3.30;94.40
70074;DHT22;57445;51.058;3.698;2023-02-28T02:15:20;3.40;94.40
70074;DHT22;57445;51.058;3.698;2023-02-28T02:17:53;3.30;94.50
70074;DHT22;57445;51.058;3.698;2023-02-28T02:23:20;3.30;94.60
70074;DHT22;57445;51.058;3.698;2023-02-28T02:25:54;3.40;94.40
70074;DHT22;57445;51.058;3.698;2023-02-28T02:28:36;3.40;94.30
70074;DHT22;57445;51.058;3.698;2023-02-28T02:34:16;3.20;94.90
70074;DHT22;57445;51.058;3.698;2023-02-28T02:36:50;3.30;94.80
70074;DHT22;57445;51.058;3.698;2023-02-28T02:39:20;3.20;94.90
70074;DHT22;57445;51.058;3.698;2023-02-28T02:41:56;3.20;95.00
70074;DHT22;57445;51.058;3.698;2023-02-28T02:44:30;3.30;95.00
70074;DHT22;57445;51.058;3.698;2023-02-28T02:46:59;3.30;94.80
70074;DHT22;57445;51.058;3.698;2023-02-28T02:49:31;3.30;94.90
70074;DHT22;57445;51.058;3.698;2023-02-28T02:52:04;3.20;95.10
70074;DHT22;57445;51.058;3.698;2023-02-28T02:54:33;3.10;95.30
70074;DHT22;57445;51.058;3.698;2023-02-28T02:57:09;3.20;95.20
70074;DHT22;57445;51.058;3.698;2023-02-28T02:59:42;3.10;95.40
70074;DHT22;57445;51.058;3.698;2023-02-28T03:02:16;3.10;95.00
70074;DHT22;57445;51.058;3.698;2023-02-28T03:04:47;3.10;95.20
70074;DHT22;57445;51.058;3.698;2023-02-28T03:07:16;3.10;95.20
70074;DHT22;57445;51.058;3.698;2023-02-28T03:09:49;3.10;95.30
70074;DHT22;57445;51.058;3.698;2023-02-28T03:12:17;3.20;95.00
70074;DHT22;57445;51.058;3.698;2023-02-28T03:14:55;3.40;94.50
70074;DHT22;57445;51.058;3.698;2023-02-28T03:20:24;3.30;94.30
70074;DHT22;57445;51.058;3.698;2023-02-28T03:23:01;3.30;94.10
70074;DHT22;57445;51.058;3.698;2023-02-28T03:25:37;3.20;94.60
70074;DHT22;57445;51.058;3.698;2023-02-28T03:28:07;3.20;94.60
70074;DHT22;57445;51.058;3.698;2023-02-28T03:30:38;3.40;94.30
70074;DHT22;57445;51.058;3.698;2023-02-28T03:33:08;3.40;94.30
70074;DHT22;57445;51.058;3.698;2023-02-28T03:35:40;3.90;94.20
70074;DHT22;57445;51.058;3.698;2023-02-28T03:38:16;3.60;93.90
70074;DHT22;57445;51.058;3.698;2023-02-28T03:40:47;3.70;93.60
70074;DHT22;57445;51.058;3.698;2023-02-28T03:43:18;3.40;93.80
70074;DHT22;57445;51.058;3.698;2023-02-28T03:45:47;3.30;94.30
70074;DHT22;57445;51.058;3.698;2023-02-28T03:48:18;3.30;94.30
70074;DHT22;57445;51.058;3.698;2023-02-28T03:50:53;3.30;94.50
70074;DHT22;57445;51.058;3.698;2023-02-28T03:53:27;3.30;94.40
70074;DHT22;57445;51.058;3.698;2023-02-28T03:55:56;3.30;95.00
70074;DHT22;57445;51.058;3.698;2023-02-28T03:58:27;3.30;94.50
70074;DHT22;57445;51.058;3.698;2023-02-28T04:00:57;3.50;93.90
70074;DHT22;57445;51.058;3.698;2023-02-28T04:03:26;3.50;94.00
70074;DHT22;57445;51.058;3.698;2023-02-28T04:05:55;3.50;94.00
70074;DHT22;57445;51.058;3.698;2023-02-28T04:08:28;3.40;94.20
70074;DHT22;57445;51.058;3.698;2023-02-28T04:10:57;3.30;94.30
70074;DHT22;57445;51.058;3.698;2023-02-28T04:13:28;3.40;94.30
70074;DHT22;57445;51.058;3.698;2023-02-28T04:15:56;3.50;93.90
70074;DHT22;57445;51.058;3.698;2023-02-28T04:18:24;3.50;93.90
70074;DHT22;57445;51.058;3.698;2023-02-28T04:20:51;3.50;94.00
70074;DHT22;57445;51.058;3.698;2023-02-28T04:23:20;3.40;94.10
70074;DHT22;57445;51.058;3.698;2023-02-28T04:25:54;3.50;93.80
70074;DHT22;57445;51.058;3.698;2023-02-28T04:28:22;3.60;93.50
70074;DHT22;57445;51.058;3.698;2023-02-28T04:30:55;3.70;93.40
70074;DHT22;57445;51.058;3.698;2023-02-28T04:33:22;3.90;93.10
70074;DHT22;57445;51.058;3.698;2023-02-28T04:35:57;4.10;92.60
70074;DHT22;57445;51.058;3.698;2023-02-28T04:38:26;4.00;92.50
70074;DHT22;57445;51.058;3.698;2023-02-28T04:40:54;4.30;92.90
70074;DHT22;57445;51.058;3.698;2023-02-28T04:43:28;4.10;93.10
70074;DHT22;57445;51.058;3.698;2023-02-28T04:46:01;4.20;93.00
70074;DHT22;57445;51.058;3.698;2023-02-28T04:48:30;4.40;93.00
70074;DHT22;57445;51.058;3.698;2023-02-28T04:50:59;4.50;92.60
70074;DHT22;57445;51.058;3.698;2023-02-28T04:53:28;4.40;93.00
70074;DHT22;57445;51.058;3.698;2023-02-28T04:56:00;4.30;93.20
70074;DHT22;57445;51.058;3.698;2023-02-28T04:58:28;4.20;93.70
70074;DHT22;57445;51.058;3.698;2023-02-28T05:01:01;4.10;94.10
70074;DHT22;57445;51.058;3.698;2023-02-28T05:03:33;4.10;94.40
70074;DHT22;57445;51.058;3.698;2023-02-28T05:06:05;3.90;94.80
70074;DHT22;57445;51.058;3.698;2023-02-28T05:08:34;4.00;95.10
70074;DHT22;57445;51.058;3.698;2023-02-28T05:11:02;4.00;95.10
70074;DHT22;57445;51.058;3.698;2023-02-28T05:13:34;4.20;94.90
70074;DHT22;57445;51.058;3.698;2023-02-28T05:16:07;4.00;95.30
70074;DHT22;57445;51.058;3.698;2023-02-28T05:18:34;3.90;95.90
70074;DHT22;57445;51.058;3.698;2023-02-28T05:21:06;4.30;95.30
70074;DHT22;57445;51.058;3.698;2023-02-28T05:23:34;4.80;94.40
70074;DHT22;57445;51.058;3.698;2023-02-28T05:26:07;5.20;93.90
70074;DHT22;57445;51.058;3.698;2023-02-28T05:28:35;4.90;93.70
70074;DHT22;57445;51.058;3.698;2023-02-28T05:31:07;5.00;92.90
70074;DHT22;57445;51.058;3.698;2023-02-28T05:33:35;4.80;92.40
70074;DHT22;57445;51.058;3.698;2023-02-28T05:36:02;4.50;92.90
70074;DHT22;57445;51.058;3.698;2023-02-28T05:38:36;4.10;93.60
70074;DHT22;57445;51.058;3.698;2023-02-28T05:41:07;3.90;94.40
70074;DHT22;57445;51.058;3.698;2023-02-28T05:43:39;4.20;94.30
70074;DHT22;57445;51.058;3.698;2023-02-28T05:46:11;4.30;93.90
70074;DHT22;57445;51.058;3.698;2023-02-28T05:48:45;4.10;94.40
70074;DHT22;57445;51.058;3.698;2023-02-28T05:51:13;4.20;94.80
70074;DHT22;57445;51.058;3.698;2023-02-28T05:53:42;4.10;94.90
70074;DHT22;57445;51.058;3.698;2023-02-28T05:56:14;3.90;95.40
70074;DHT22;57445;51.058;3.698;2023-02-28T05:58:41;3.90;95.50
70074;DHT22;57445;51.058;3.698;2023-02-28T06:01:33;3.80;95.80
70074;DHT22;57445;51.058;3.698;2023-02-28T06:04:01;3.80;95.80
70074;DHT22;57445;51.058;3.698;2023-02-28T06:06:29;3.70;95.90
70074;DHT22;57445;51.058;3.698;2023-02-28T06:08:58;4.20;95.80
70074;DHT22;57445;51.058;3.698;2023-02-28T06:11:31;3.70;96.00
70074;DHT22;57445;51.058;3.698;2023-02-28T06:14:03;3.80;95.90
70074;DHT22;57445;51.058;3.698;2023-02-28T06:16:35;3.90;95.50
70074;DHT22;57445;51.058;3.698;2023-02-28T06:19:08;4.10;95.00
70074;DHT22;57445;51.058;3.698;2023-02-28T06:21:40;4.30;94.90
70074;DHT22;57445;51.058;3.698;2023-02-28T06:24:09;4.30;94.50
70074;DHT22;57445;51.058;3.698;2023-02-28T06:26:37;4.50;94.00
70074;DHT22;57445;51.058;3.698;2023-02-28T06:29:09;4.30;93.70
70074;DHT22;57445;51.058;3.698;2023-02-28T06:31:36;4.10;94.20
70074;DHT22;57445;51.058;3.698;2023-02-28T06:34:04;3.90;94.50
70074;DHT22;57445;51.058;3.698;2023-02-28T06:36:36;3.90;94.50
70074;DHT22;57445;51.058;3.698;2023-02-28T06:39:10;3.80;94.50
70074;DHT22;57445;51.058;3.698;2023-02-28T06:41:38;3.90;94.20
70074;DHT22;57445;51.058;3.698;2023-02-28T06:44:11;4.00;94.40
70074;DHT22;57445;51.058;3.698;2023-02-28T06:46:40;3.90;93.60
70074;DHT22;57445;51.058;3.698;2023-02-28T06:49:07;3.80;93.70
70074;DHT22;57445;51.058;3.698;2023-02-28T06:51:36;3.90;93.40
70074;DHT22;57445;51.058;3.698;2023-02-28T06:54:04;4.00;93.50
70074;DHT22;57445;51.058;3.698;2023-02-28T06:56:41;4.20;93.40
70074;DHT22;57445;51.058;3.698;2023-02-28T06:59:13;4.30;92.60
70074;DHT22;57445;51.058;3.698;2023-02-28T07:01:41;4.20;92.60
70074;DHT22;57445;51.058;3.698;2023-02-28T07:04:13;4.20;92.30
70074;DHT22;57445;51.058;3.698;2023-02-28T07:06:40;4.30;92.00
70074;DHT22;57445;51.058;3.698;2023-02-28T07:09:08;4.30;92.10
70074;DHT22;57445;51.058;3.698;2023-02-28T07:11:37;4.20;92.00
70074;DHT22;57445;51.058;3.698;2023-02-28T07:14:07;4.20;92.10
70074;DHT22;57445;51.058;3.698;2023-02-28T07:16:39;4.40;91.60
70074;DHT22;57445;51.058;3.698;2023-02-28T07:19:11;4.60;91.50
70074;DHT22;57445;51.058;3.698;2023-02-28T07:21:38;4.60;91.00
70074;DHT22;57445;51.058;3.698;2023-02-28T07:24:06;4.60;90.10
70074;DHT22;57445;51.058;3.698;2023-02-28T07:26:33;4.40;90.50
70074;DHT22;57445;51.058;3.698;2023-02-28T07:29:01;4.40;90.50
70074;DHT22;57445;51.058;3.698;2023-02-28T07:31:35;4.30;90.50
70074;DHT22;57445;51.058;3.698;2023-02-28T07:34:07;4.20;90.80
70074;DHT22;57445;51.058;3.698;2023-02-28T07:36:35;4.60;90.90
70074;DHT22;57445;51.058;3.698;2023-02-28T07:39:02;4.70;91.00
70074;DHT22;57445;51.058;3.698;2023-02-28T07:41:35;4.50;90.70
70074;DHT22;57445;51.058;3.698;2023-02-28T07:44:16;4.70;90.50
70074;DHT22;57445;51.058;3.698;2023-02-28T07:46:48;4.70;90.00
70074;DHT22;57445;51.058;3.698;2023-02-28T07:49:20;4.90;90.00
70074;DHT22;57445;51.058;3.698;2023-02-28T07:51:52;4.80;89.20
70074;DHT22;57445;51.058;3.698;2023-02-28T07:54:28;4.60;89.40
70074;DHT22;57445;51.058;3.698;2023-02-28T07:56:56;4.80;90.00
70074;DHT22;57445;51.058;3.698;2023-02-28T07:59:28;4.90;89.70
70074;DHT22;57445;51.058;3.698;2023-02-28T08:01:58;5.00;88.70
70074;DHT22;57445;51.058;3.698;2023-02-28T08:04:31;4.90;89.60
70074;DHT22;57445;51.058;3.698;2023-02-28T08:07:03;4.70;90.10
70074;DHT22;57445;51.058;3.698;2023-02-28T08:09:35;4.60;90.70
70074;DHT22;57445;51.058;3.698;2023-02-28T08:12:04;4.80;90.20
70074;DHT22;57445;51.058;3.698;2023-02-28T08:14:32;4.80;90.30
70074;DHT22;57445;51.058;3.698;2023-02-28T08:17:05;4.60;90.70
70074;DHT22;57445;51.058;3.698;2023-02-28T08:19:37;4.50;90.80
70074;DHT22;57445;51.058;3.698;2023-02-28T08:22:05;4.70;90.60
70074;DHT22;57445;51.058;3.698;2023-02-28T08:24:33;4.80;90.50
70074;DHT22;57445;51.058;3.698;2023-02-28T08:27:05;4.80;90.60
70074;DHT22;57445;51.058;3.698;2023-02-28T08:29:37;4.90;90.60
70074;DHT22;57445;51.058;3.698;2023-02-28T08:32:11;4.80;90.90
70074;DHT22;57445;51.058;3.698;2023-02-28T08:34:38;4.90;90.70
70074;DHT22;57445;51.058;3.698;2023-02-28T08:37:06;5.00;90.80
70074;DHT22;57445;51.058;3.698;2023-02-28T08:39:35;5.20;90.40
70074;DHT22;57445;51.058;3.698;2023-02-28T08:42:03;5.40;90.20
70074;DHT22;57445;51.058;3.698;2023-02-28T08:44:32;5.70;89.10
70074;DHT22;57445;51.058;3.698;2023-02-28T08:47:04;5.80;88.10
70074;DHT22;57445;51.058;3.698;2023-02-28T08:49:34;5.40;89.00
70074;DHT22;57445;51.058;3.698;2023-02-28T08:52:02;5.50;89.40
70074;DHT22;57445;51.058;3.698;2023-02-28T08:54:34;5.30;89.50
70074;DHT22;57445;51.058;3.698;2023-02-28T08:57:02;5.50;89.30
70074;DHT22;57445;51.058;3.698;2023-02-28T08:59:31;5.90;89.40
70074;DHT22;57445;51.058;3.698;2023-02-28T09:02:03;6.00;87.20
70074;DHT22;57445;51.058;3.698;2023-02-28T09:04:31;6.00;87.20
70074;DHT22;57445;51.058;3.698;2023-02-28T09:07:01;5.90;88.00
70074;DHT22;57445;51.058;3.698;2023-02-28T09:09:29;6.00;86.90
70074;DHT22;57445;51.058;3.698;2023-02-28T09:11:57;5.80;87.80
70074;DHT22;57445;51.058;3.698;2023-02-28T09:14:29;5.60;88.40
70074;DHT22;57445;51.058;3.698;2023-02-28T09:17:01;5.30;89.00
70074;DHT22;57445;51.058;3.698;2023-02-28T09:19:29;5.60;88.00
70074;DHT22;57445;51.058;3.698;2023-02-28T09:22:02;5.80;86.70
70074;DHT22;57445;51.058;3.698;2023-02-28T09:24:29;5.90;87.00
70074;DHT22;57445;51.058;3.698;2023-02-28T09:26:59;5.90;87.20
70074;DHT22;57445;51.058;3.698;2023-02-28T09:29:27;5.90;84.20
70074;DHT22;57445;51.058;3.698;2023-02-28T09:31:59;5.70;83.40
70074;DHT22;57445;51.058;3.698;2023-02-28T09:34:31;5.80;81.90
70074;DHT22;57445;51.058;3.698;2023-02-28T09:36:59;6.00;82.50
70074;DHT22;57445;51.058;3.698;2023-02-28T09:39:33;6.00;82.90
70074;DHT22;57445;51.058;3.698;2023-02-28T09:42:01;6.10;82.40
70074;DHT22;57445;51.058;3.698;2023-02-28T09:44:30;6.40;80.80
70074;DHT22;57445;51.058;3.698;2023-02-28T09:47:05;6.10;79.70
70074;DHT22;57445;51.058;3.698;2023-02-28T09:49:40;5.80;79.40
70074;DHT22;57445;51.058;3.698;2023-02-28T09:52:14;5.70;80.70
70074;DHT22;57445;51.058;3.698;2023-02-28T09:54:44;5.90;78.60
70074;DHT22;57445;51.058;3.698;2023-02-28T09:57:14;6.40;76.50
70074;DHT22;57445;51.058;3.698;2023-02-28T09:59:49;7.10;76.30
70074;DHT22;57445;51.058;3.698;2023-02-28T10:02:41;6.80;75.10
70074;DHT22;57445;51.058;3.698;2023-02-28T10:05:18;6.60;74.50
70074;DHT22;57445;51.058;3.698;2023-02-28T10:07:54;6.40;75.20
70074;DHT22;57445;51.058;3.698;2023-02-28T10:10:27;6.20;75.30
70074;DHT22;57445;51.058;3.698;2023-02-28T10:12:56;5.30;76.60
70074;DHT22;57445;51.058;3.698;2023-02-28T10:15:30;5.50;77.90
70074;DHT22;57445;51.058;3.698;2023-02-28T10:18:06;5.80;76.60
70074;DHT22;57445;51.058;3.698;2023-02-28T10:20:42;6.10;75.60
70074;DHT22;57445;51.058;3.698;2023-02-28T10:23:17;6.50;74.20
70074;DHT22;57445;51.058;3.698;2023-02-28T10:25:54;6.40;73.30
70074;DHT22;57445;51.058;3.698;2023-02-28T10:28:27;6.60;72.40
70074;DHT22;57445;51.058;3.698;2023-02-28T10:30:56;5.80;73.30
70074;DHT22;57445;51.058;3.698;2023-02-28T10:33:25;6.30;73.40
70074;DHT22;57445;51.058;3.698;2023-02-28T10:35:59;6.10;73.70
70074;DHT22;57445;51.058;3.698;2023-02-28T10:38:32;6.00;72.50
70074;DHT22;57445;51.058;3.698;2023-02-28T10:41:06;6.20;72.80
70074;DHT22;57445;51.058;3.698;2023-02-28T10:43:40;6.50;70.50
70074;DHT22;57445;51.058;3.698;2023-02-28T10:46:14;6.20;70.50
70074;DHT22;57445;51.058;3.698;2023-02-28T10:48:59;6.30;70.60
70074;DHT22;57445;51.058;3.698;2023-02-28T10:51:35;5.90;70.90
70074;DHT22;57445;51.058;3.698;2023-02-28T10:54:14;6.30;70.90
70074;DHT22;57445;51.058;3.698;2023-02-28T10:56:59;6.80;67.60
70074;DHT22;57445;51.058;3.698;2023-02-28T10:59:33;7.30;66.70
70074;DHT22;57445;51.058;3.698;2023-02-28T11:02:01;7.70;66.10
70074;DHT22;57445;51.058;3.698;2023-02-28T11:04:35;8.00;64.30
70074;DHT22;57445;51.058;3.698;2023-02-28T11:07:06;8.30;64.80
70074;DHT22;57445;51.058;3.698;2023-02-28T11:09:39;8.40;63.90
70074;DHT22;57445;51.058;3.698;2023-02-28T11:12:19;7.60;64.60
70074;DHT22;57445;51.058;3.698;2023-02-28T11:14:49;8.20;63.60
70074;DHT22;57445;51.058;3.698;2023-02-28T11:17:19;8.50;63.10
70074;DHT22;57445;51.058;3.698;2023-02-28T11:19:53;8.50;61.80
70074;DHT22;57445;51.058;3.698;2023-02-28T11:22:26;8.80;60.70
70074;DHT22;57445;51.058;3.698;2023-02-28T11:25:00;8.60;61.00
70074;DHT22;57445;51.058;3.698;2023-02-28T11:27:42;8.90;60.70
70074;DHT22;57445;51.058;3.698;2023-02-28T11:30:29;8.60;60.20
70074;DHT22;57445;51.058;3.698;2023-02-28T11:32:57;8.00;62.10
70074;DHT22;57445;51.058;3.698;2023-02-28T11:35:26;8.00;61.40
70074;DHT22;57445;51.058;3.698;2023-02-28T11:37:58;7.80;61.80
70074;DHT22;57445;51.058;3.698;2023-02-28T11:40:28;7.40;63.00
70074;DHT22;57445;51.058;3.698;2023-02-28T11:43:05;7.00;63.50
70074;DHT22;57445;51.058;3.698;2023-02-28T11:45:38;6.80;64.50
70074;DHT22;57445;51.058;3.698;2023-02-28T11:48:12;7.30;64.00
70074;DHT22;57445;51.058;3.698;2023-02-28T11:50:45;7.10;63.40
70074;DHT22;57445;51.058;3.698;2023-02-28T11:53:21;7.20;63.50
70074;DHT22;57445;51.058;3.698;2023-02-28T11:55:50;7.20;63.00
70074;DHT22;57445;51.058;3.698;2023-02-28T11:58:28;7.10;63.20
70074;DHT22;57445;51.058;3.698;2023-02-28T12:01:00;6.90;62.90
70074;DHT22;57445;51.058;3.698;2023-02-28T12:03:31;7.00;62.70
70074;DHT22;57445;51.058;3.698;2023-02-28T12:06:06;7.20;62.50
70074;DHT22;57445;51.058;3.698;2023-02-28T12:08:42;7.40;61.90
70074;DHT22;57445;51.058;3.698;2023-02-28T12:11:11;8.30;61.40
70074;DHT22;57445;51.058;3.698;2023-02-28T12:13:48;8.20;61.10
70074;DHT22;57445;51.058;3.698;2023-02-28T12:16:30;8.20;60.90
70074;DHT22;57445;51.058;3.698;2023-02-28T12:19:03;8.10;59.60
70074;DHT22;57445;51.058;3.698;2023-02-28T12:21:41;8.00;58.90
70074;DHT22;57445;51.058;3.698;2023-02-28T12:24:28;8.50;58.10
70074;DHT22;57445;51.058;3.698;2023-02-28T12:27:05;8.50;58.00
70074;DHT22;57445;51.058;3.698;2023-02-28T12:29:42;8.20;57.80
70074;DHT22;57445;51.058;3.698;2023-02-28T12:32:12;8.00;57.80
70074;DHT22;57445;51.058;3.698;2023-02-28T12:34:46;8.10;56.70
70074;DHT22;57445;51.058;3.698;2023-02-28T12:37:15;7.90;56.70
70074;DHT22;57445;51.058;3.698;2023-02-28T12:39:45;8.10;57.10
70074;DHT22;57445;51.058;3.698;2023-02-28T12:42:16;8.00;56.90
70074;DHT22;57445;51.058;3.698;2023-02-28T12:44:51;8.00;56.40
70074;DHT22;57445;51.058;3.698;2023-02-28T12:47:24;7.50;56.60
70074;DHT22;57445;51.058;3.698;2023-02-28T12:49:58;7.50;56.60
70074;DHT22;57445;51.058;3.698;2023-02-28T12:52:32;7.70;56.40
70074;DHT22;57445;51.058;3.698;2023-02-28T12:55:03;8.20;54.70
70074;DHT22;57445;51.058;3.698;2023-02-28T12:57:39;8.40;54.30
70074;DHT22;57445;51.058;3.698;2023-02-28T13:00:12;8.50;52.10
70074;DHT22;57445;51.058;3.698;2023-02-28T13:05:46;8.30;51.80
70074;DHT22;57445;51.058;3.698;2023-02-28T13:11:02;7.90;54.20
70074;DHT22;57445;51.058;3.698;2023-02-28T13:13:30;8.00;52.60
70074;DHT22;57445;51.058;3.698;2023-02-28T13:16:04;8.00;51.30
70074;DHT22;57445;51.058;3.698;2023-02-28T13:18:37;8.10;51.60
70074;DHT22;57445;51.058;3.698;2023-02-28T13:21:07;7.70;52.70
70074;DHT22;57445;51.058;3.698;2023-02-28T13:23:39;7.60;53.10
70074;DHT22;57445;51.058;3.698;2023-02-28T13:26:12;7.60;52.70
70074;DHT22;57445;51.058;3.698;2023-02-28T13:34:24;7.40;51.80
70074;DHT22;57445;51.058;3.698;2023-02-28T13:36:53;7.60;51.60
70074;DHT22;57445;51.058;3.698;2023-02-28T13:39:45;7.90;51.60
70074;DHT22;57445;51.058;3.698;2023-02-28T13:42:23;8.20;50.10
70074;DHT22;57445;51.058;3.698;2023-02-28T13:47:42;7.90;48.90
70074;DHT22;57445;51.058;3.698;2023-02-28T13:50:21;7.20;50.70
70074;DHT22;57445;51.058;3.698;2023-02-28T13:52:55;7.00;51.60
70074;DHT22;57445;51.058;3.698;2023-02-28T13:55:31;7.10;51.80
70074;DHT22;57445;51.058;3.698;2023-02-28T13:58:16;7.00;51.80
70074;DHT22;57445;51.058;3.698;2023-02-28T14:00:57;7.20;51.10
70074;DHT22;57445;51.058;3.698;2023-02-28T14:03:30;7.00;51.00
70074;DHT22;57445;51.058;3.698;2023-02-28T14:06:13;7.10;51.60
70074;DHT22;57445;51.058;3.698;2023-02-28T14:08:44;7.60;50.90
70074;DHT22;57445;51.058;3.698;2023-02-28T14:11:27;7.80;50.50
70074;DHT22;57445;51.058;3.698;2023-02-28T14:13:59;7.80;50.90
70074;DHT22;57445;51.058;3.698;2023-02-28T14:16:36;8.30;49.50
70074;DHT22;57445;51.058;3.698;2023-02-28T14:19:16;8.50;48.90
70074;DHT22;57445;51.058;3.698;2023-02-28T14:21:56;8.20;49.20
70074;DHT22;57445;51.058;3.698;2023-02-28T14:27:24;7.50;50.40
70074;DHT22;57445;51.058;3.698;2023-02-28T14:32:41;7.40;50.70
70074;DHT22;57445;51.058;3.698;2023-02-28T14:35:15;7.30;51.30
70074;DHT22;57445;51.058;3.698;2023-02-28T14:37:51;7.20;51.70
70074;DHT22;57445;51.058;3.698;2023-02-28T14:40:27;7.40;51.60
70074;DHT22;57445;51.058;3.698;2023-02-28T14:42:55;7.70;51.00
70074;DHT22;57445;51.058;3.698;2023-02-28T14:45:29;7.70;50.40
70074;DHT22;57445;51.058;3.698;2023-02-28T14:47:57;7.70;50.20
70074;DHT22;57445;51.058;3.698;2023-02-28T14:50:27;7.60;50.60
70074;DHT22;57445;51.058;3.698;2023-02-28T14:53:00;7.50;50.90
70074;DHT22;57445;51.058;3.698;2023-02-28T14:55:29;7.30;50.90
70074;DHT22;57445;51.058;3.698;2023-02-28T14:57:57;7.50;50.90
70074;DHT22;57445;51.058;3.698;2023-02-28T15:00:26;7.80;50.50
70074;DHT22;57445;51.058;3.698;2023-02-28T15:02:54;8.00;50.00
70074;DHT22;57445;51.058;3.698;2023-02-28T15:05:27;8.10;49.80
70074;DHT22;57445;51.058;3.698;2023-02-28T15:08:04;7.90;50.50
70074;DHT22;57445;51.058;3.698;2023-02-28T15:10:36;7.60;50.40
70074;DHT22;57445;51.058;3.698;2023-02-28T15:13:11;7.70;51.10
70074;DHT22;57445;51.058;3.698;2023-02-28T15:15:47;7.80;50.20
70074;DHT22;57445;51.058;3.698;2023-02-28T15:18:21;7.90;50.50
70074;DHT22;57445;51.058;3.698;2023-02-28T15:20:50;7.80;50.80
70074;DHT22;57445;51.058;3.698;2023-02-28T15:23:19;7.70;50.80
70074;DHT22;57445;51.058;3.698;2023-02-28T15:25:47;7.80;51.10
70074;DHT22;57445;51.058;3.698;2023-02-28T15:28:18;7.80;51.00
70074;DHT22;57445;51.058;3.698;2023-02-28T15:30:53;7.60;51.10
70074;DHT22;57445;51.058;3.698;2023-02-28T15:33:26;7.60;51.30
70074;DHT22;57445;51.058;3.698;2023-02-28T15:36:05;7.50;51.40
70074;DHT22;57445;51.058;3.698;2023-02-28T15:38:39;7.20;52.30
70074;DHT22;57445;51.058;3.698;2023-02-28T15:41:20;7.50;52.20
70074;DHT22;57445;51.058;3.698;2023-02-28T15:46:45;7.50;52.10
70074;DHT22;57445;51.058;3.698;2023-02-28T15:49:25;7.20;52.70
70074;DHT22;57445;51.058;3.698;2023-02-28T15:51:57;7.10;52.90
70074;DHT22;57445;51.058;3.698;2023-02-28T15:54:29;7.30;52.70
70074;DHT22;57445;51.058;3.698;2023-02-28T15:57:03;7.10;53.10
70074;DHT22;57445;51.058;3.698;2023-02-28T15:59:36;7.10;53.60
70074;DHT22;57445;51.058;3.698;2023-02-28T16:02:16;6.90;53.70
70074;DHT22;57445;51.058;3.698;2023-02-28T16:04:54;6.90;54.30
70074;DHT22;57445;51.058;3.698;2023-02-28T16:07:22;6.90;54.00
70074;DHT22;57445;51.058;3.698;2023-02-28T16:09:51;6.80;54.30
70074;DHT22;57445;51.058;3.698;2023-02-28T16:12:25;7.00;53.80
70074;DHT22;57445;51.058;3.698;2023-02-28T16:14:53;7.00;53.90
70074;DHT22;57445;51.058;3.698;2023-02-28T16:17:22;7.10;53.20
70074;DHT22;57445;51.058;3.698;2023-02-28T16:19:50;7.40;53.60
70074;DHT22;57445;51.058;3.698;2023-02-28T16:22:22;7.00;53.90
70074;DHT22;57445;51.058;3.698;2023-02-28T16:24:50;7.00;54.40
70074;DHT22;57445;51.058;3.698;2023-02-28T16:27:20;7.10;54.10
70074;DHT22;57445;51.058;3.698;2023-02-28T16:29:48;6.70;55.40
70074;DHT22;57445;51.058;3.698;2023-02-28T16:32:16;6.40;56.10
70074;DHT22;57445;51.058;3.698;2023-02-28T16:34:48;6.60;55.70
70074;DHT22;57445;51.058;3.698;2023-02-28T16:37:16;6.80;55.50
70074;DHT22;57445;51.058;3.698;2023-02-28T16:39:48;6.90;55.20
70074;DHT22;57445;51.058;3.698;2023-02-28T16:42:21;6.70;55.40
70074;DHT22;57445;51.058;3.698;2023-02-28T16:44:56;6.70;55.80
70074;DHT22;57445;51.058;3.698;2023-02-28T16:47:24;6.70;55.80